createdAt,value
2022-10-20T00:01:21.371Z,11.50
2022-10-20T00:03:50.170Z,11.40
2022-10-20T00:06:23.265Z,11.40
2022-10-20T00:08:51.677Z,11.40
2022-10-20T00:11:21.730Z,11.40
2022-10-20T00:13:51.441Z,11.30
2022-10-20T00:16:19.836Z,11.30
2022-10-20T00:18:48.082Z,11.30
2022-10-20T00:21:18.769Z,11.30
2022-10-20T00:23:48.190Z,11.20
2022-10-20T00:26:18.860Z,11.20
2022-10-20T00:28:47.172Z,11.20
2022-10-20T00:31:15.948Z,11.20
2022-10-20T00:33:43.881Z,11.20
2022-10-20T00:36:15.667Z,11.20
2022-10-20T00:38:43.887Z,11.10
2022-10-20T00:41:14.903Z,11.10
2022-10-20T00:43:48.229Z,11.10
2022-10-20T00:46:18.462Z,11.10
2022-10-20T00:48:50.099Z,11.00
2022-10-20T00:51:22.065Z,11.10
2022-10-20T00:53:52.021Z,11.00
2022-10-20T00:56:22.216Z,11.00
2022-10-20T00:58:51.311Z,11.00
2022-10-20T01:01:20.080Z,10.90
2022-10-20T01:03:50.372Z,11.00
2022-10-20T01:06:21.258Z,10.90
2022-10-20T01:08:49.689Z,10.90
2022-10-20T01:11:24.636Z,10.90
2022-10-20T01:14:08.654Z,10.80
2022-10-20T01:16:46.407Z,10.80
2022-10-20T01:19:44.601Z,10.80
2022-10-20T01:22:37.850Z,10.70
2022-10-20T01:25:18.278Z,10.70
2022-10-20T01:27:49.264Z,10.80
2022-10-20T01:30:21.025Z,10.80
2022-10-20T01:32:57.956Z,10.70
2022-10-20T01:35:36.023Z,10.80
2022-10-20T01:38:13.877Z,10.80
2022-10-20T01:40:49.092Z,10.80
2022-10-20T01:43:22.174Z,10.70
2022-10-20T01:45:51.625Z,10.80
2022-10-20T01:48:23.431Z,10.80
2022-10-20T01:50:52.155Z,10.80
2022-10-20T01:53:20.964Z,10.80
2022-10-20T01:55:52.924Z,10.80
2022-10-20T01:58:50.117Z,10.80
2022-10-20T02:01:27.217Z,10.90
2022-10-20T02:03:59.074Z,10.90
2022-10-20T02:06:36.112Z,10.90
2022-10-20T02:09:08.097Z,10.90
2022-10-20T02:11:44.501Z,10.90
2022-10-20T02:14:16.736Z,10.90
2022-10-20T02:16:48.403Z,10.90
2022-10-20T02:19:20.933Z,10.90
2022-10-20T02:21:50.388Z,10.90
2022-10-20T02:24:20.055Z,10.90
2022-10-20T02:26:48.159Z,10.90
2022-10-20T02:29:20.818Z,10.90
2022-10-20T02:31:49.313Z,10.90
2022-10-20T02:34:17.555Z,10.90
2022-10-20T02:36:45.494Z,10.90
2022-10-20T02:39:13.611Z,10.90
2022-10-20T02:41:41.550Z,11.00
2022-10-20T02:44:09.445Z,11.00
2022-10-20T02:46:38.803Z,11.00
2022-10-20T02:49:06.692Z,11.00
2022-10-20T02:51:34.554Z,10.90
2022-10-20T02:54:02.501Z,11.00
2022-10-20T02:56:31.121Z,10.90
2022-10-20T02:58:59.381Z,10.90
2022-10-20T03:01:27.516Z,10.90
2022-10-20T03:03:59.632Z,11.00
2022-10-20T03:06:27.790Z,10.90
2022-10-20T03:08:55.766Z,10.90
2022-10-20T03:11:23.972Z,10.90
2022-10-20T03:13:52.057Z,11.00
2022-10-20T03:16:20.136Z,10.90
2022-10-20T03:18:48.061Z,10.90
2022-10-20T03:21:17.409Z,10.90
2022-10-20T03:23:45.344Z,10.90
2022-10-20T03:26:14.004Z,10.90
2022-10-20T03:28:42.285Z,10.90
2022-10-20T03:31:10.892Z,10.90
2022-10-20T03:33:38.889Z,10.90
2022-10-20T03:36:07.460Z,10.80
2022-10-20T03:38:36.867Z,10.90
2022-10-20T03:41:04.907Z,10.90
2022-10-20T03:43:32.800Z,10.80
2022-10-20T03:46:04.897Z,10.80
2022-10-20T03:48:32.766Z,10.90
2022-10-20T03:51:01.383Z,10.90
2022-10-20T03:53:29.523Z,10.90
2022-10-20T03:55:59.161Z,10.80
2022-10-20T03:58:27.044Z,10.80
2022-10-20T04:00:55.962Z,10.80
2022-10-20T04:03:23.825Z,10.80
2022-10-20T04:05:51.776Z,10.80
2022-10-20T04:08:19.724Z,10.80
2022-10-20T04:10:47.664Z,10.80
2022-10-20T04:13:16.902Z,10.80
2022-10-20T04:15:44.794Z,10.80
2022-10-20T04:18:12.753Z,10.90
2022-10-20T04:20:43.654Z,10.90
2022-10-20T04:23:12.911Z,10.90
2022-10-20T04:25:45.376Z,11.00
2022-10-20T04:28:13.567Z,10.90
2022-10-20T04:30:43.548Z,10.90
2022-10-20T04:33:11.835Z,10.90
2022-10-20T04:35:40.247Z,10.80
2022-10-20T04:38:11.629Z,10.90
2022-10-20T04:40:39.546Z,10.90
2022-10-20T04:43:07.491Z,11.00
2022-10-20T04:45:35.422Z,11.00
2022-10-20T04:48:05.939Z,11.00
2022-10-20T04:50:33.892Z,11.00
2022-10-20T04:53:01.997Z,11.00
2022-10-20T04:55:29.993Z,11.00
2022-10-20T04:57:57.925Z,11.10
2022-10-20T05:00:25.816Z,11.10
2022-10-20T05:02:53.804Z,11.10
2022-10-20T05:05:23.091Z,11.00
2022-10-20T05:07:50.970Z,11.00
2022-10-20T05:10:20.724Z,11.00
2022-10-20T05:12:48.727Z,11.00
2022-10-20T05:15:16.940Z,11.00
2022-10-20T05:17:44.864Z,11.00
2022-10-20T05:20:12.832Z,10.90
2022-10-20T05:22:42.131Z,10.90
2022-10-20T05:25:35.108Z,10.90
2022-10-20T05:27:59.264Z,10.90
2022-10-20T05:30:27.222Z,10.80
2022-10-20T05:32:58.244Z,10.80
2022-10-20T05:35:26.305Z,10.70
2022-10-20T05:37:55.608Z,10.70
2022-10-20T05:40:23.888Z,10.70
2022-10-20T05:42:51.809Z,10.70
2022-10-20T05:45:19.749Z,10.70
2022-10-20T05:47:47.753Z,10.70
2022-10-20T05:50:21.692Z,10.70
2022-10-20T05:52:49.628Z,10.60
2022-10-20T05:55:19.198Z,10.60
2022-10-20T05:57:51.756Z,10.60
2022-10-20T06:00:29.458Z,10.50
2022-10-20T06:02:57.804Z,10.60
2022-10-20T06:05:25.889Z,10.50
2022-10-20T06:07:55.150Z,10.50
2022-10-20T06:10:24.584Z,10.40
2022-10-20T06:12:54.708Z,10.40
2022-10-20T06:15:22.592Z,10.40
2022-10-20T06:17:51.739Z,10.40
2022-10-20T06:20:19.666Z,10.40
2022-10-20T06:22:47.518Z,10.40
2022-10-20T06:25:15.661Z,10.40
2022-10-20T06:27:44.964Z,10.50
2022-10-20T06:30:13.468Z,10.40
2022-10-20T06:32:41.393Z,10.40
2022-10-20T06:35:11.564Z,10.50
2022-10-20T06:37:39.478Z,10.50
2022-10-20T06:40:08.347Z,10.50
2022-10-20T06:42:36.532Z,10.60
2022-10-20T06:45:07.249Z,10.60
2022-10-20T06:47:35.451Z,10.60
2022-10-20T06:50:06.066Z,10.50
2022-10-20T06:52:34.293Z,10.30
2022-10-20T06:55:02.516Z,10.40
2022-10-20T06:57:32.147Z,10.50
2022-10-20T07:00:00.102Z,10.60
2022-10-20T07:02:31.205Z,10.70
2022-10-20T07:04:59.180Z,10.70
2022-10-20T07:07:27.254Z,10.70
2022-10-20T07:09:56.862Z,10.80
2022-10-20T07:12:25.248Z,10.80
2022-10-20T07:14:53.167Z,10.70
2022-10-20T07:17:22.718Z,10.70
2022-10-20T07:19:53.100Z,10.80
2022-10-20T07:22:21.008Z,10.80
2022-10-20T07:24:49.031Z,11.00
2022-10-20T07:27:17.084Z,11.20
2022-10-20T07:29:45.119Z,11.20
2022-10-20T07:32:13.085Z,11.30
2022-10-20T07:34:41.113Z,11.40
2022-10-20T07:37:10.431Z,11.50
2022-10-20T07:39:40.030Z,11.60
2022-10-20T07:42:08.011Z,11.70
2022-10-20T07:44:37.131Z,11.70
2022-10-20T07:47:07.664Z,11.70
2022-10-20T07:49:44.262Z,11.70
2022-10-20T07:52:16.398Z,11.70
2022-10-20T07:54:44.452Z,11.70
2022-10-20T07:57:12.633Z,11.70
2022-10-20T07:59:40.703Z,11.60
2022-10-20T08:02:08.721Z,11.60
2022-10-20T08:04:39.256Z,11.70
2022-10-20T08:07:07.139Z,11.80
2022-10-20T08:09:36.440Z,12.00
2022-10-20T08:12:04.881Z,12.00
2022-10-20T08:14:35.038Z,11.90
2022-10-20T08:17:06.739Z,11.90
2022-10-20T08:22:25.490Z,12.20
2022-10-20T08:24:55.083Z,12.30
2022-10-20T08:27:25.031Z,12.20
2022-10-20T08:30:00.178Z,12.30
2022-10-20T08:32:40.487Z,12.30
2022-10-20T08:35:09.080Z,12.20
2022-10-20T08:37:37.648Z,12.30
2022-10-20T08:40:08.369Z,12.40
2022-10-20T08:42:40.981Z,12.60
2022-10-20T08:45:15.357Z,12.70
2022-10-20T08:47:45.078Z,12.80
2022-10-20T08:50:16.656Z,13.00
2022-10-20T08:52:46.326Z,13.10
2022-10-20T08:55:23.766Z,13.10
2022-10-20T08:57:53.858Z,13.30
2022-10-20T09:00:24.114Z,13.30
2022-10-20T09:02:54.186Z,13.20
2022-10-20T09:05:25.445Z,13.20
2022-10-20T09:07:53.674Z,13.30
2022-10-20T09:10:32.399Z,13.50
2022-10-20T09:13:01.252Z,13.60
2022-10-20T09:15:30.268Z,13.40
2022-10-20T09:18:01.838Z,13.40
2022-10-20T09:20:34.822Z,13.60
2022-10-20T09:23:07.775Z,13.70
2022-10-20T09:25:43.184Z,13.90
2022-10-20T09:28:21.746Z,14.00
2022-10-20T09:30:49.894Z,14.10
2022-10-20T09:33:30.637Z,14.40
2022-10-20T09:36:05.138Z,14.80
2022-10-20T09:38:38.088Z,15.10
2022-10-20T09:41:15.368Z,15.40
2022-10-20T09:43:58.257Z,15.50
2022-10-20T09:46:30.338Z,15.60
2022-10-20T09:48:59.020Z,15.80
2022-10-20T09:51:30.176Z,16.00
2022-10-20T09:54:03.490Z,16.00
2022-10-20T09:56:36.570Z,16.10
2022-10-20T09:59:08.248Z,16.10
2022-10-20T10:01:52.927Z,16.00
2022-10-20T10:04:33.075Z,16.00
2022-10-20T10:07:01.179Z,16.00
2022-10-20T10:09:34.568Z,16.10
2022-10-20T10:12:07.020Z,16.10
2022-10-20T10:14:37.381Z,16.20
2022-10-20T10:17:05.487Z,16.30
2022-10-20T10:19:35.597Z,16.30
2022-10-20T10:22:04.667Z,16.30
2022-10-20T10:24:42.009Z,16.40
2022-10-20T10:27:26.378Z,16.80
2022-10-20T10:29:54.821Z,17.10
2022-10-20T10:32:26.452Z,17.40
2022-10-20T10:35:13.644Z,17.50
2022-10-20T10:37:44.138Z,17.80
2022-10-20T10:40:18.357Z,18.00
2022-10-20T10:43:14.384Z,18.20
2022-10-20T10:45:46.708Z,18.40
2022-10-20T10:48:33.258Z,18.70
2022-10-20T10:51:03.472Z,19.10
2022-10-20T10:53:49.162Z,19.50
2022-10-20T10:56:29.603Z,19.80
2022-10-20T10:59:05.491Z,19.60
2022-10-20T11:01:56.622Z,19.20
2022-10-20T11:04:49.996Z,19.00
2022-10-20T11:07:30.295Z,18.70
2022-10-20T11:10:05.878Z,18.50
2022-10-20T11:12:46.980Z,18.30
2022-10-20T11:15:30.269Z,18.10
2022-10-20T11:18:08.436Z,17.80
2022-10-20T11:20:43.858Z,17.70
2022-10-20T11:23:40.544Z,17.60
2022-10-20T11:26:18.639Z,17.60
2022-10-20T11:28:50.017Z,17.50
2022-10-20T11:31:25.534Z,17.50
2022-10-20T11:34:01.035Z,17.50
2022-10-20T11:36:36.167Z,17.40
2022-10-20T11:39:06.724Z,17.20
2022-10-20T11:41:43.126Z,17.10
2022-10-20T11:44:16.776Z,17.10
2022-10-20T11:46:50.023Z,17.10
2022-10-20T11:49:19.256Z,17.10
2022-10-20T11:52:16.886Z,17.10
2022-10-20T11:55:06.037Z,17.00
2022-10-20T11:57:45.748Z,16.90
2022-10-20T12:00:27.889Z,16.80
2022-10-20T12:03:33.114Z,16.90
2022-10-20T12:06:28.723Z,16.90
2022-10-20T12:09:38.482Z,16.90
2022-10-20T12:12:14.765Z,16.90
2022-10-20T12:14:45.758Z,17.00
2022-10-20T12:17:42.215Z,17.10
2022-10-20T12:21:01.905Z,17.10
2022-10-20T12:24:07.652Z,17.20
2022-10-20T12:27:08.188Z,17.20
2022-10-20T12:30:02.386Z,17.10
2022-10-20T12:32:54.022Z,17.10
2022-10-20T12:36:00.711Z,17.00
2022-10-20T12:38:30.322Z,16.90
2022-10-20T12:41:03.290Z,16.80
2022-10-20T12:43:49.357Z,16.70
2022-10-20T12:46:22.263Z,16.80
2022-10-20T12:48:57.372Z,16.80
2022-10-20T12:51:36.072Z,16.90
2022-10-20T12:54:09.276Z,16.90
2022-10-20T12:56:41.992Z,16.90
2022-10-20T12:59:39.318Z,16.90
2022-10-20T13:02:51.363Z,16.90
2022-10-20T13:05:42.221Z,16.90
2022-10-20T13:08:29.000Z,16.90
2022-10-20T13:10:57.938Z,16.90
2022-10-20T13:13:45.047Z,16.90
2022-10-20T13:16:19.497Z,17.00
2022-10-20T13:18:51.551Z,17.00
2022-10-20T13:21:26.841Z,17.00
2022-10-20T13:23:59.987Z,17.00
2022-10-20T13:26:30.634Z,16.90
2022-10-20T13:29:01.930Z,16.90
2022-10-20T13:31:33.910Z,16.90
2022-10-20T13:34:11.719Z,16.80
2022-10-20T13:36:53.722Z,16.80
2022-10-20T13:39:28.779Z,16.80
2022-10-20T13:42:06.622Z,16.70
2022-10-20T13:44:46.986Z,16.60
2022-10-20T13:47:38.816Z,16.50
2022-10-20T13:50:12.309Z,16.40
2022-10-20T13:52:44.688Z,16.40
2022-10-20T13:55:18.636Z,16.40
2022-10-20T13:57:55.501Z,16.40
2022-10-20T14:00:28.925Z,16.30
2022-10-20T14:02:59.813Z,16.30
2022-10-20T14:05:29.621Z,16.20
2022-10-20T14:08:03.248Z,16.20
2022-10-20T14:10:40.850Z,16.20
2022-10-20T14:13:11.354Z,16.20
2022-10-20T14:15:41.428Z,16.20
2022-10-20T14:18:24.201Z,16.10
2022-10-20T14:20:57.488Z,16.10
2022-10-20T14:23:26.025Z,16.10
2022-10-20T14:25:58.030Z,16.20
2022-10-20T14:28:29.299Z,16.20
2022-10-20T14:30:58.675Z,16.20
2022-10-20T14:33:27.251Z,16.20
2022-10-20T14:36:02.542Z,16.20
2022-10-20T14:38:34.560Z,16.20
2022-10-20T14:41:02.978Z,16.20
2022-10-20T14:43:39.027Z,16.20
2022-10-20T14:46:09.873Z,16.20
2022-10-20T14:48:42.835Z,16.20
2022-10-20T14:51:30.671Z,16.30
2022-10-20T14:54:20.317Z,16.30
2022-10-20T14:56:50.437Z,16.30
2022-10-20T14:59:20.221Z,16.20
2022-10-20T15:02:01.631Z,16.20
2022-10-20T15:04:33.460Z,16.20
2022-10-20T15:07:06.879Z,16.30
2022-10-20T15:09:40.881Z,16.30
2022-10-20T15:12:15.028Z,16.30
2022-10-20T15:14:46.043Z,16.20
2022-10-20T15:17:37.579Z,16.20
2022-10-20T15:20:35.451Z,16.20
2022-10-20T15:23:05.308Z,16.20
2022-10-20T15:25:40.225Z,16.20
2022-10-20T15:28:15.590Z,16.20
2022-10-20T15:30:43.563Z,16.20
2022-10-20T15:33:13.163Z,16.10
2022-10-20T15:35:44.759Z,16.20
2022-10-20T15:38:12.723Z,16.20
2022-10-20T15:40:40.760Z,16.20
2022-10-20T15:43:12.619Z,16.20
2022-10-20T15:45:44.192Z,16.20
2022-10-20T15:48:13.453Z,16.20
2022-10-20T15:50:42.220Z,16.10
2022-10-20T15:53:11.900Z,16.20
2022-10-20T15:55:42.133Z,16.20
2022-10-20T15:58:10.219Z,16.20
2022-10-20T16:00:38.474Z,16.20
2022-10-20T16:03:07.027Z,16.10
2022-10-20T16:05:36.366Z,16.10
2022-10-20T16:08:04.416Z,16.10
2022-10-20T16:10:32.436Z,16.10
2022-10-20T16:13:00.444Z,16.10
2022-10-20T16:15:30.475Z,16.10
2022-10-20T16:17:59.330Z,16.10
2022-10-20T16:20:27.278Z,16.10
2022-10-20T16:22:56.578Z,16.00
2022-10-20T16:25:24.572Z,16.00
2022-10-20T16:27:53.437Z,16.00
2022-10-20T16:30:21.520Z,16.00
2022-10-20T16:32:51.869Z,15.90
2022-10-20T16:35:19.852Z,15.80
2022-10-20T16:37:47.924Z,15.80
2022-10-20T16:40:17.435Z,15.70
2022-10-20T16:42:48.150Z,15.70
2022-10-20T16:45:16.300Z,15.70
2022-10-20T16:47:44.229Z,15.70
2022-10-20T16:50:12.610Z,15.60
2022-10-20T16:52:40.553Z,15.60
2022-10-20T16:55:09.331Z,15.50
2022-10-20T16:57:39.786Z,15.50
2022-10-20T17:00:10.012Z,15.50
2022-10-20T17:02:38.730Z,15.50
2022-10-20T17:05:09.366Z,15.60
2022-10-20T17:07:38.548Z,15.50
2022-10-20T17:10:07.873Z,15.40
2022-10-20T17:12:35.835Z,15.40
2022-10-20T17:15:05.812Z,15.40
2022-10-20T17:17:33.824Z,15.30
2022-10-20T17:20:01.779Z,15.30
2022-10-20T17:22:29.682Z,15.30
2022-10-20T17:25:00.058Z,15.30
2022-10-20T17:27:32.495Z,15.30
2022-10-20T17:30:00.234Z,15.30
2022-10-20T17:32:29.527Z,15.40
2022-10-20T17:34:57.467Z,15.30
2022-10-20T17:37:25.472Z,15.30
2022-10-20T17:39:53.466Z,15.30
2022-10-20T17:42:21.481Z,15.30
2022-10-20T17:44:49.448Z,15.20
2022-10-20T17:47:17.344Z,15.20
2022-10-20T17:49:46.631Z,15.10
2022-10-20T17:52:14.544Z,15.10
2022-10-20T17:54:42.856Z,15.10
2022-10-20T17:57:10.844Z,15.10
2022-10-20T17:59:52.412Z,15.10
2022-10-20T18:02:25.546Z,15.10
2022-10-20T18:04:54.881Z,15.10
2022-10-20T18:07:22.819Z,15.10
2022-10-20T18:09:50.797Z,15.10
2022-10-20T18:12:18.798Z,15.00
2022-10-20T18:14:46.785Z,15.00
2022-10-20T18:17:14.795Z,15.00
2022-10-20T18:19:42.938Z,15.00
2022-10-20T18:22:12.233Z,15.00
2022-10-20T18:24:40.346Z,15.00
2022-10-20T18:27:08.266Z,15.00
2022-10-20T18:29:36.183Z,15.00
2022-10-20T18:32:04.286Z,14.90
2022-10-20T18:34:32.266Z,14.90
2022-10-20T18:37:03.369Z,14.90
2022-10-20T18:39:32.772Z,14.90
2022-10-20T18:42:00.927Z,15.00
2022-10-20T18:47:03.453Z,14.90
2022-10-20T18:49:31.398Z,14.90
2022-10-20T18:51:59.548Z,14.90
2022-10-20T18:54:28.191Z,14.90
2022-10-20T18:57:00.456Z,14.90
2022-10-20T18:59:28.634Z,14.90
2022-10-20T19:01:56.612Z,14.90
2022-10-20T19:04:24.586Z,15.00
2022-10-20T19:06:53.228Z,15.00
2022-10-20T19:09:23.891Z,15.00
2022-10-20T19:11:52.020Z,15.00
2022-10-20T19:14:21.332Z,15.00
2022-10-20T19:16:50.151Z,15.00
2022-10-20T19:19:18.161Z,15.10
2022-10-20T19:21:46.599Z,15.00
2022-10-20T19:24:19.635Z,15.00
2022-10-20T19:26:57.041Z,15.00
2022-10-20T19:29:31.449Z,15.10
2022-10-20T19:32:01.590Z,15.00
2022-10-20T19:34:32.229Z,14.90
2022-10-20T19:37:00.270Z,14.90
2022-10-20T19:39:35.887Z,14.90
2022-10-20T19:42:05.239Z,14.80
2022-10-20T19:44:37.840Z,14.80
2022-10-20T19:47:06.342Z,14.80
2022-10-20T19:49:37.601Z,14.80
2022-10-20T19:52:06.126Z,14.80
2022-10-20T19:54:34.421Z,14.80
2022-10-20T19:57:03.447Z,14.80
2022-10-20T19:59:31.564Z,14.80
2022-10-20T20:02:00.857Z,14.70
2022-10-20T20:04:28.794Z,14.80
2022-10-20T20:07:01.687Z,14.80
2022-10-20T20:09:30.583Z,14.80
2022-10-20T20:11:58.566Z,14.90
2022-10-20T20:14:26.659Z,14.90
2022-10-20T20:16:57.597Z,14.90
2022-10-20T20:19:26.970Z,14.90
2022-10-20T20:21:54.939Z,15.00
2022-10-20T20:24:22.887Z,14.90
2022-10-20T20:26:53.643Z,15.00
2022-10-20T20:29:21.635Z,14.90
2022-10-20T20:31:50.143Z,14.90
2022-10-20T20:34:18.238Z,14.90
2022-10-20T20:36:47.609Z,14.90
2022-10-20T20:39:15.673Z,14.80
2022-10-20T20:41:43.919Z,14.90
2022-10-20T20:44:14.058Z,14.90
2022-10-20T20:46:42.116Z,14.90
2022-10-20T20:49:11.482Z,14.90
2022-10-20T20:51:39.381Z,14.90
2022-10-20T20:54:10.168Z,14.80
2022-10-20T20:56:38.318Z,14.90
2022-10-20T20:59:06.231Z,14.80
2022-10-20T21:01:34.204Z,14.80
2022-10-20T21:04:06.015Z,14.80
2022-10-20T21:06:56.528Z,14.80
2022-10-20T21:09:25.342Z,14.80
2022-10-20T21:11:53.259Z,14.70
2022-10-20T21:14:21.212Z,14.70
2022-10-20T21:16:49.677Z,14.70
2022-10-20T21:19:17.815Z,14.80
2022-10-20T21:21:50.541Z,14.80
2022-10-20T21:24:19.233Z,14.80
2022-10-20T21:26:48.743Z,14.80
2022-10-20T21:29:16.835Z,14.80
2022-10-20T21:31:44.833Z,14.80
2022-10-20T21:34:13.291Z,14.80
2022-10-20T21:36:41.282Z,14.90
2022-10-20T21:39:12.224Z,14.90
2022-10-20T21:41:40.306Z,14.90
2022-10-20T21:44:10.544Z,15.00
2022-10-20T21:46:41.901Z,15.00
2022-10-20T21:49:13.739Z,15.00
2022-10-20T21:51:44.108Z,15.00
2022-10-20T21:54:14.356Z,15.00
2022-10-20T21:56:44.302Z,15.00
2022-10-20T21:59:17.949Z,15.00
2022-10-20T22:01:49.004Z,15.00
2022-10-20T22:04:17.979Z,15.10
2022-10-20T22:06:45.896Z,15.10
2022-10-20T22:09:14.946Z,15.10
2022-10-20T22:11:44.896Z,15.20
2022-10-20T22:14:15.578Z,15.20
2022-10-20T22:16:47.298Z,15.20
2022-10-20T22:19:17.166Z,15.20
2022-10-20T22:21:46.633Z,15.30
2022-10-20T22:24:15.449Z,15.30
2022-10-20T22:26:43.706Z,15.30
2022-10-20T22:29:14.995Z,15.30
2022-10-20T22:31:44.376Z,15.40
2022-10-20T22:34:12.569Z,15.40
2022-10-20T22:36:40.816Z,15.40
2022-10-20T22:39:09.394Z,15.40
2022-10-20T22:41:39.339Z,15.40
2022-10-20T22:44:08.001Z,15.40
2022-10-20T22:46:35.984Z,15.40
2022-10-20T22:49:07.177Z,15.40
2022-10-20T22:51:35.120Z,15.40
2022-10-20T22:54:03.056Z,15.30
2022-10-20T22:56:31.026Z,15.20
2022-10-20T22:58:58.938Z,15.30
2022-10-20T23:01:26.912Z,15.30
2022-10-20T23:03:54.912Z,15.10
2022-10-20T23:06:26.172Z,15.10
2022-10-20T23:08:57.934Z,15.10
2022-10-20T23:11:26.189Z,15.00
2022-10-20T23:13:54.259Z,15.10
2022-10-20T23:18:52.953Z,15.20
2022-10-20T23:21:20.852Z,15.20
2022-10-20T23:23:50.197Z,15.20
2022-10-20T23:26:18.188Z,15.30
2022-10-20T23:28:46.092Z,15.30
2022-10-20T23:31:15.782Z,15.30
2022-10-20T23:33:44.991Z,15.30
2022-10-20T23:36:13.930Z,15.30
2022-10-20T23:38:42.105Z,15.30
2022-10-20T23:41:11.871Z,15.20
2022-10-20T23:43:40.256Z,15.30
2022-10-20T23:46:08.799Z,15.30
2022-10-20T23:48:37.332Z,15.30
2022-10-20T23:51:05.664Z,15.30
2022-10-20T23:53:34.364Z,15.30
2022-10-20T23:56:02.299Z,15.30
2022-10-20T23:58:31.591Z,15.20
